BISR weather

Stórikroppur Airport
Stórikroppur, Western Region, Iceland

Public forecast

Using degrees Celsius for public forecast. Weather courtesy of forecast.io.

METAR (pilot weather report)

Closest report is Reykjavik Airport, 32.5 nm (60.2 km) SSW. Retrieved 2019/04/25 21:00 UTC (24 minutes ago):

BIRK 252100Z 03004KT 340V090 9999 FEW035 BKN056 OVC098 10/04 Q0997

TAF (pilot weather forecast)

Closest forecast is Reykjavik Airport, 32.5 nm (60.2 km) SSW. Retrieved 2019/04/25 21:30 UTC (0 seconds ago):

TAF BIRK 251918Z 2521/2621 13014KT 9999 FEW020 SCT050 TX12/2615Z TN07/2621Z BECMG 2522/2600 5000 RADZ BR SCT010 OVC020 BECMG 2605/2608 9999 -SHRA BKN020 TEMPO 2618/2621 7000 RADZ SCT012 OVC020